createdAt,value
2018-11-20T00:00:16.039Z,2.13
2018-11-20T00:03:03.182Z,2.90
2018-11-20T00:05:49.914Z,2.53
2018-11-20T00:08:34.070Z,2.87
2018-11-20T00:11:21.236Z,2.20
2018-11-20T00:14:08.439Z,2.30
2018-11-20T00:16:55.618Z,2.00
2018-11-20T00:19:40.880Z,2.57
2018-11-20T00:22:28.076Z,2.47
2018-11-20T00:25:15.268Z,2.63
2018-11-20T00:27:50.561Z,2.30
2018-11-20T00:30:37.755Z,2.30
2018-11-20T00:33:14.934Z,3.00
2018-11-20T00:36:02.480Z,2.90
2018-11-20T00:38:44.367Z,3.27
2018-11-20T00:41:31.660Z,3.10
2018-11-20T00:44:18.849Z,3.10
2018-11-20T00:47:06.204Z,3.00
2018-11-20T00:49:53.420Z,2.80
2018-11-20T00:52:40.616Z,2.27
2018-11-20T00:56:03.874Z,3.30
2018-11-20T00:58:43.896Z,3.23
2018-11-20T01:01:31.078Z,2.93
2018-11-20T01:04:18.274Z,2.97
2018-11-20T01:07:03.478Z,3.43
2018-11-20T01:09:50.915Z,3.10
2018-11-20T01:12:31.364Z,2.93
2018-11-20T01:15:18.548Z,2.90
2018-11-20T01:18:00.982Z,3.17
2018-11-20T01:20:43.598Z,3.43
2018-11-20T01:23:30.778Z,3.63
2018-11-20T01:26:17.972Z,3.30
2018-11-20T01:29:02.540Z,3.20
2018-11-20T01:31:49.737Z,3.07
2018-11-20T01:34:31.469Z,3.30
2018-11-20T01:37:18.665Z,2.53
2018-11-20T01:39:54.234Z,3.57
2018-11-20T01:42:41.439Z,3.37
2018-11-20T01:45:22.327Z,3.37
2018-11-20T01:48:09.487Z,3.17
2018-11-20T01:50:51.423Z,2.97
2018-11-20T01:53:30.203Z,3.40
2018-11-20T01:56:17.395Z,3.27
2018-11-20T01:58:59.957Z,3.67
2018-11-20T02:01:47.697Z,2.80
2018-11-20T02:04:34.935Z,2.90
2018-11-20T02:07:23.074Z,3.23
2018-11-20T02:10:01.963Z,3.23
2018-11-20T02:12:49.141Z,3.90
2018-11-20T02:15:36.333Z,3.17
2018-11-20T02:18:28.770Z,3.33
2018-11-20T02:21:16.251Z,3.23
2018-11-20T02:23:55.457Z,3.20
2018-11-20T02:26:42.682Z,2.97
2018-11-20T02:30:25.588Z,3.77
2018-11-20T02:33:02.922Z,3.60
2018-11-20T02:35:50.101Z,2.67
2018-11-20T02:38:37.271Z,4.30
2018-11-20T02:41:13.944Z,2.90
2018-11-20T02:43:59.394Z,3.83
2018-11-20T02:46:46.750Z,3.37
2018-11-20T02:49:30.423Z,3.67
2018-11-20T02:52:10.591Z,3.60
2018-11-20T02:54:51.333Z,3.83
2018-11-20T02:57:31.996Z,3.87
2018-11-20T03:00:09.744Z,3.63
2018-11-20T03:02:56.940Z,3.73
2018-11-20T03:05:44.145Z,3.67
2018-11-20T03:08:31.379Z,3.93
2018-11-20T03:11:11.510Z,3.27
2018-11-20T03:13:58.706Z,3.87
2018-11-20T03:16:45.873Z,3.50
2018-11-20T03:19:33.114Z,3.57
2018-11-20T03:22:20.444Z,3.60
2018-11-20T03:25:07.612Z,4.30
2018-11-20T03:27:55.086Z,2.70
2018-11-20T03:30:49.746Z,3.97
2018-11-20T03:33:36.933Z,3.83
2018-11-20T03:36:24.278Z,3.80
2018-11-20T03:39:11.471Z,3.90
2018-11-20T03:41:58.664Z,3.83
2018-11-20T03:44:42.546Z,3.93
2018-11-20T03:47:19.614Z,3.93
2018-11-20T03:50:06.816Z,3.83
2018-11-20T03:52:46.869Z,3.90
2018-11-20T03:55:33.685Z,4.70
2018-11-20T03:58:21.134Z,4.33
2018-11-20T04:01:01.154Z,4.43
2018-11-20T04:03:48.371Z,4.80
2018-11-20T04:06:28.954Z,4.70
2018-11-20T04:09:10.972Z,4.30
2018-11-20T04:11:51.052Z,3.80
2018-11-20T04:14:27.916Z,4.63
2018-11-20T04:17:15.112Z,4.10
2018-11-20T04:20:02.312Z,4.93
2018-11-20T04:22:49.526Z,4.57
2018-11-20T04:25:29.576Z,4.30
2018-11-20T04:28:05.714Z,4.73
2018-11-20T04:31:31.401Z,4.03
2018-11-20T04:34:10.562Z,4.30
2018-11-20T04:36:50.529Z,5.00
2018-11-20T04:39:37.702Z,5.70
2018-11-20T04:42:16.784Z,4.77
2018-11-20T04:45:00.204Z,5.60
2018-11-20T04:47:40.696Z,5.33
2018-11-20T04:50:18.344Z,5.40
2018-11-20T04:53:05.553Z,5.13
2018-11-20T04:55:52.795Z,5.23
2018-11-20T04:58:39.982Z,6.07
2018-11-20T05:01:22.667Z,5.63
2018-11-20T05:04:10.151Z,5.90
2018-11-20T05:06:46.967Z,5.83
2018-11-20T05:09:28.529Z,5.87
2018-11-20T05:12:15.156Z,5.97
2018-11-20T05:15:02.339Z,6.10
2018-11-20T05:17:41.024Z,6.47
2018-11-20T05:20:26.065Z,8.07
2018-11-20T05:23:04.148Z,6.97
2018-11-20T05:25:50.934Z,6.53
2018-11-20T05:28:38.125Z,6.80
2018-11-20T05:31:25.592Z,7.33
2018-11-20T05:34:02.563Z,6.67
2018-11-20T05:36:39.711Z,7.30
2018-11-20T05:39:27.840Z,7.60
2018-11-20T05:42:09.690Z,6.77
2018-11-20T05:44:56.855Z,7.47
2018-11-20T05:47:44.066Z,7.77
2018-11-20T05:50:31.229Z,7.67
2018-11-20T05:53:08.947Z,7.37
2018-11-20T05:55:56.169Z,8.07
2018-11-20T05:58:43.398Z,6.37
2018-11-20T06:01:30.617Z,7.73
2018-11-20T06:04:13.167Z,8.50
2018-11-20T06:07:00.351Z,8.40
2018-11-20T06:09:40.185Z,8.97
2018-11-20T06:12:27.361Z,8.53
2018-11-20T06:15:14.544Z,7.23
2018-11-20T06:18:01.734Z,7.40
2018-11-20T06:20:48.917Z,8.33
2018-11-20T06:23:36.137Z,8.50
2018-11-20T06:26:23.339Z,8.80
2018-11-20T06:28:57.898Z,7.77
2018-11-20T06:31:45.070Z,7.97
2018-11-20T06:34:29.267Z,8.13
2018-11-20T06:37:16.384Z,7.17
2018-11-20T06:39:55.371Z,8.23
2018-11-20T06:42:42.581Z,8.43
2018-11-20T06:45:22.851Z,8.20
2018-11-20T06:48:01.813Z,8.47
2018-11-20T06:50:48.999Z,8.93
2018-11-20T06:53:36.370Z,8.37
2018-11-20T06:56:16.163Z,8.73
2018-11-20T06:59:03.372Z,8.70
2018-11-20T07:01:49.919Z,8.97
2018-11-20T07:04:26.843Z,7.57
2018-11-20T07:07:14.161Z,8.50
2018-11-20T07:09:50.720Z,8.57
2018-11-20T07:12:29.923Z,8.03
2018-11-20T07:15:10.039Z,7.80
2018-11-20T07:17:57.291Z,8.97
2018-11-20T07:20:41.211Z,8.10
2018-11-20T07:23:29.132Z,7.67
2018-11-20T07:26:03.503Z,7.93
2018-11-20T07:28:50.728Z,9.73
2018-11-20T07:31:38.008Z,9.13
2018-11-20T07:34:25.203Z,7.77
2018-11-20T07:37:10.199Z,8.13
2018-11-20T07:39:48.766Z,8.70
2018-11-20T07:42:28.316Z,8.20
2018-11-20T07:45:15.589Z,10.00
2018-11-20T07:48:02.746Z,9.13
2018-11-20T07:50:49.941Z,8.03
2018-11-20T07:53:37.145Z,7.80
2018-11-20T07:56:24.510Z,9.10
2018-11-20T07:59:04.582Z,9.20
2018-11-20T08:01:51.800Z,8.07
2018-11-20T08:04:35.770Z,8.13
2018-11-20T08:07:22.990Z,9.90
2018-11-20T08:10:03.101Z,8.70
2018-11-20T08:12:50.316Z,8.17
2018-11-20T08:15:37.661Z,9.17
2018-11-20T08:18:13.680Z,10.00
2018-11-20T08:20:47.191Z,9.47
2018-11-20T08:23:23.767Z,8.97
2018-11-20T08:26:06.208Z,8.37
2018-11-20T08:28:53.359Z,8.70
2018-11-20T08:31:31.617Z,9.57
2018-11-20T08:34:10.488Z,8.70
2018-11-20T08:36:55.175Z,8.63
2018-11-20T08:39:42.387Z,9.77
2018-11-20T08:42:19.812Z,7.60
2018-11-20T08:45:06.908Z,8.60
2018-11-20T08:47:54.141Z,8.13
2018-11-20T08:50:37.029Z,8.77
2018-11-20T08:53:18.626Z,8.13
2018-11-20T08:55:56.776Z,8.03
2018-11-20T08:58:32.656Z,8.53
2018-11-20T09:01:19.874Z,9.47
2018-11-20T09:04:07.136Z,8.07
2018-11-20T09:06:46.421Z,8.53
2018-11-20T09:09:33.668Z,9.20
2018-11-20T09:12:20.904Z,8.67
2018-11-20T09:15:08.132Z,7.00
2018-11-20T09:17:55.382Z,8.73
2018-11-20T09:20:42.570Z,8.73
2018-11-20T09:23:30.112Z,7.23
2018-11-20T09:26:15.951Z,7.43
2018-11-20T09:28:57.322Z,8.20
2018-11-20T09:31:44.501Z,8.67
2018-11-20T09:34:31.785Z,8.63
2018-11-20T09:37:18.936Z,7.93
2018-11-20T09:40:44.652Z,8.30
2018-11-20T09:43:31.884Z,7.87
2018-11-20T09:46:20.996Z,8.47
2018-11-20T09:49:08.430Z,8.20
2018-11-20T09:51:55.624Z,8.07
2018-11-20T09:54:42.855Z,8.13
2018-11-20T09:57:23.586Z,7.10
2018-11-20T10:00:10.802Z,7.97
2018-11-20T10:02:58.021Z,7.20
2018-11-20T10:05:36.742Z,8.20
2018-11-20T10:08:24.339Z,7.43
2018-11-20T10:11:11.548Z,8.43
2018-11-20T10:13:48.900Z,9.50
2018-11-20T10:16:36.088Z,7.87
2018-11-20T10:19:18.543Z,8.37
2018-11-20T10:22:05.882Z,7.60
2018-11-20T10:24:53.344Z,8.10
2018-11-20T10:27:36.244Z,9.27
2018-11-20T10:30:17.029Z,7.77
2018-11-20T10:33:04.256Z,8.87
2018-11-20T10:35:39.680Z,8.77
2018-11-20T10:38:18.419Z,7.93
2018-11-20T10:40:55.422Z,9.43
2018-11-20T10:43:42.787Z,8.83
2018-11-20T10:46:25.847Z,9.63
2018-11-20T10:49:13.018Z,9.37
2018-11-20T10:52:00.215Z,9.20
2018-11-20T10:54:41.660Z,8.20
2018-11-20T10:57:28.872Z,7.53
2018-11-20T11:00:16.107Z,8.00
2018-11-20T11:03:03.591Z,10.43
2018-11-20T11:05:51.612Z,11.90
2018-11-20T11:08:40.171Z,8.80
2018-11-20T11:11:20.615Z,9.93
2018-11-20T11:14:07.794Z,9.07
2018-11-20T11:16:53.067Z,9.77
2018-11-20T11:19:37.041Z,10.73
2018-11-20T11:22:20.766Z,9.97
2018-11-20T11:24:58.606Z,9.33
2018-11-20T11:27:38.082Z,11.33
2018-11-20T11:30:15.133Z,11.60
2018-11-20T11:33:02.399Z,13.73
2018-11-20T11:35:49.609Z,11.77
2018-11-20T11:38:36.823Z,9.73
2018-11-20T11:41:24.061Z,8.93
2018-11-20T11:44:02.931Z,9.27
2018-11-20T11:46:47.627Z,9.13
2018-11-20T11:49:30.086Z,8.43
2018-11-20T11:52:17.269Z,9.90
2018-11-20T11:54:56.061Z,8.53
2018-11-20T11:57:43.957Z,8.93
2018-11-20T12:00:25.142Z,7.40
2018-11-20T12:03:12.583Z,8.73
2018-11-20T12:05:59.841Z,7.97
2018-11-20T12:08:47.034Z,7.67
2018-11-20T12:11:34.257Z,9.63
2018-11-20T12:14:21.465Z,7.57
2018-11-20T12:17:08.651Z,8.87
2018-11-20T12:19:56.121Z,8.60
2018-11-20T12:22:43.383Z,9.20
2018-11-20T12:25:18.716Z,9.20
2018-11-20T12:28:05.957Z,8.93
2018-11-20T12:30:53.571Z,8.00
2018-11-20T12:33:33.117Z,7.70
2018-11-20T12:36:19.969Z,8.63
2018-11-20T12:39:07.183Z,8.20
2018-11-20T12:41:46.641Z,9.03
2018-11-20T12:44:33.837Z,9.03
2018-11-20T12:47:21.089Z,7.97
2018-11-20T12:50:08.610Z,9.10
2018-11-20T12:52:55.361Z,9.60
2018-11-20T12:55:42.553Z,8.70
2018-11-20T12:58:19.742Z,8.70
2018-11-20T13:01:06.961Z,9.13
2018-11-20T13:03:54.133Z,9.53
2018-11-20T13:06:41.394Z,9.40
2018-11-20T13:09:29.893Z,8.90
2018-11-20T13:12:15.390Z,8.10
2018-11-20T13:15:02.655Z,8.87
2018-11-20T13:17:42.383Z,8.27
2018-11-20T13:20:29.757Z,8.33
2018-11-20T13:23:16.852Z,10.73
2018-11-20T13:25:53.781Z,10.17
2018-11-20T13:28:34.981Z,9.13
2018-11-20T13:31:20.807Z,8.57
2018-11-20T13:34:10.524Z,10.43
2018-11-20T13:36:55.470Z,8.33
2018-11-20T13:39:39.053Z,9.20
2018-11-20T13:42:31.850Z,8.33
2018-11-20T13:45:18.624Z,8.73
2018-11-20T13:48:04.827Z,7.67
2018-11-20T13:50:45.284Z,8.10
2018-11-20T13:53:32.473Z,8.97
2018-11-20T13:56:19.688Z,7.60
2018-11-20T13:59:06.907Z,8.13
2018-11-20T14:01:54.106Z,9.33
2018-11-20T14:04:41.327Z,7.70
2018-11-20T14:07:28.531Z,7.87
2018-11-20T14:10:10.391Z,8.80
2018-11-20T14:12:57.609Z,9.30
2018-11-20T14:15:37.071Z,8.57
2018-11-20T14:18:19.145Z,9.27
2018-11-20T14:21:01.464Z,9.47
2018-11-20T14:23:48.669Z,8.50
2018-11-20T14:26:26.460Z,8.83
2018-11-20T14:29:01.880Z,8.90
2018-11-20T14:31:49.148Z,9.27
2018-11-20T14:34:24.851Z,8.33
2018-11-20T14:37:12.034Z,8.10
2018-11-20T14:39:57.973Z,8.67
2018-11-20T14:42:45.189Z,9.33
2018-11-20T14:45:25.447Z,9.30
2018-11-20T14:48:12.694Z,8.83
2018-11-20T14:50:50.736Z,8.63
2018-11-20T14:53:38.202Z,8.67
2018-11-20T14:56:25.396Z,8.57
2018-11-20T14:59:12.666Z,9.50
2018-11-20T15:01:59.853Z,9.53
2018-11-20T15:04:47.761Z,10.23
2018-11-20T15:07:25.092Z,9.73
2018-11-20T15:10:12.312Z,10.20
2018-11-20T15:12:49.352Z,9.47
2018-11-20T15:15:38.926Z,9.87
2018-11-20T15:18:26.392Z,9.43
2018-11-20T15:21:07.461Z,10.03
2018-11-20T15:23:43.349Z,8.50
2018-11-20T15:26:24.158Z,9.17
2018-11-20T15:29:11.394Z,8.63
2018-11-20T15:31:58.546Z,8.70
2018-11-20T15:34:45.809Z,9.53
2018-11-20T15:37:30.270Z,8.97
2018-11-20T15:40:17.502Z,9.43
2018-11-20T15:43:01.354Z,8.43
2018-11-20T15:45:48.566Z,9.90
2018-11-20T15:48:35.780Z,8.70
2018-11-20T15:51:14.820Z,9.23
2018-11-20T15:54:02.021Z,8.37
2018-11-20T15:56:42.230Z,8.47
2018-11-20T15:59:27.773Z,9.50
2018-11-20T16:02:14.030Z,12.17
2018-11-20T16:05:01.752Z,10.73
2018-11-20T16:07:48.986Z,16.67
2018-11-20T16:10:26.731Z,13.03
2018-11-20T16:13:04.645Z,17.57
2018-11-20T16:15:51.398Z,14.10
2018-11-20T16:18:38.674Z,12.80
2018-11-20T16:21:19.322Z,12.37
2018-11-20T16:24:07.040Z,10.60
2018-11-20T16:26:43.148Z,10.87
2018-11-20T16:29:31.219Z,11.77
2018-11-20T16:32:11.998Z,9.33
2018-11-20T16:34:59.246Z,9.60
2018-11-20T16:37:46.543Z,9.10
2018-11-20T16:40:33.940Z,9.83
2018-11-20T16:43:21.200Z,10.23
2018-11-20T16:46:08.463Z,8.73
2018-11-20T16:48:55.648Z,8.33
2018-11-20T16:51:43.023Z,9.63
2018-11-20T16:54:30.291Z,9.27
2018-11-20T16:57:08.933Z,9.97
2018-11-20T16:59:56.177Z,9.70
2018-11-20T17:02:41.677Z,9.40
2018-11-20T17:05:28.865Z,9.20
2018-11-20T17:08:04.531Z,9.63
2018-11-20T17:10:51.749Z,10.47
2018-11-20T17:13:39.700Z,10.50
2018-11-20T17:16:26.937Z,9.23
2018-11-20T17:19:14.394Z,9.23
2018-11-20T17:22:01.587Z,9.10
2018-11-20T17:24:48.921Z,10.30
2018-11-20T17:27:36.212Z,8.63
2018-11-20T17:30:22.309Z,11.33
2018-11-20T17:33:00.521Z,10.07
2018-11-20T17:35:47.739Z,13.73
2018-11-20T17:38:34.965Z,13.63
2018-11-20T17:41:15.996Z,13.63
2018-11-20T17:44:03.432Z,12.70
2018-11-20T17:46:50.651Z,10.67
2018-11-20T17:49:37.899Z,10.53
2018-11-20T17:52:25.365Z,10.47
2018-11-20T17:55:03.251Z,10.63
2018-11-20T17:57:53.370Z,9.50
2018-11-20T18:00:32.199Z,10.37
2018-11-20T18:03:19.421Z,11.43
2018-11-20T18:06:01.883Z,13.63
2018-11-20T18:08:49.142Z,12.17
2018-11-20T18:11:36.349Z,11.10
2018-11-20T18:14:23.839Z,11.40
2018-11-20T18:17:00.911Z,11.10
2018-11-20T18:19:44.975Z,10.17
2018-11-20T18:22:30.107Z,11.57
2018-11-20T18:25:14.835Z,15.47
2018-11-20T18:28:02.051Z,12.03
2018-11-20T18:30:41.693Z,13.20
2018-11-20T18:33:25.978Z,15.37
2018-11-20T18:36:13.203Z,14.13
2018-11-20T18:39:00.381Z,11.20
2018-11-20T18:41:47.611Z,10.80
2018-11-20T18:44:35.021Z,11.73
2018-11-20T18:47:21.256Z,14.10
2018-11-20T18:50:08.531Z,14.13
2018-11-20T18:52:44.476Z,16.67
2018-11-20T18:55:31.713Z,17.80
2018-11-20T18:58:18.969Z,17.47
2018-11-20T19:01:06.167Z,16.67
2018-11-20T19:03:48.041Z,16.37
2018-11-20T19:06:35.277Z,18.77
2018-11-20T19:09:23.118Z,16.77
2018-11-20T19:12:11.060Z,13.60
2018-11-20T19:14:53.239Z,11.57
2018-11-20T19:17:40.452Z,11.43
2018-11-20T19:20:27.671Z,12.23
2018-11-20T19:23:15.129Z,12.30
2018-11-20T19:26:02.382Z,12.23
2018-11-20T19:28:47.123Z,10.33
2018-11-20T19:31:41.183Z,10.17
2018-11-20T19:34:21.565Z,11.70
2018-11-20T19:37:08.871Z,11.20
2018-11-20T19:39:50.088Z,11.23
2018-11-20T19:42:31.552Z,15.07
2018-11-20T19:45:18.767Z,12.73
2018-11-20T19:48:05.994Z,12.67
2018-11-20T19:50:57.792Z,13.67
2018-11-20T19:53:40.471Z,12.53
2018-11-20T19:56:27.674Z,11.40
2018-11-20T19:59:14.894Z,12.97
2018-11-20T20:02:02.110Z,12.37
2018-11-20T20:04:50.092Z,12.87
2018-11-20T20:07:37.332Z,13.10
2018-11-20T20:10:30.918Z,13.37
2018-11-20T20:13:13.668Z,13.07
2018-11-20T20:15:56.932Z,12.63
2018-11-20T20:18:44.142Z,10.93
2018-11-20T20:21:25.790Z,10.83
2018-11-20T20:24:09.704Z,10.90
2018-11-20T20:26:57.198Z,9.83
2018-11-20T20:29:37.657Z,8.33
2018-11-20T20:32:24.938Z,10.37
2018-11-20T20:35:12.147Z,9.33
2018-11-20T20:37:59.524Z,9.30
2018-11-20T20:40:46.788Z,8.93
2018-11-20T20:43:31.970Z,10.43
2018-11-20T20:46:19.190Z,11.13
2018-11-20T20:49:06.399Z,10.70
2018-11-20T20:51:53.708Z,10.23
2018-11-20T20:54:41.687Z,12.17
2018-11-20T20:57:16.167Z,10.10
2018-11-20T20:59:54.838Z,11.10
2018-11-20T21:02:34.456Z,8.93
2018-11-20T21:05:10.849Z,10.10
2018-11-20T21:07:58.076Z,10.70
2018-11-20T21:10:39.666Z,10.17
2018-11-20T21:13:26.908Z,9.53
2018-11-20T21:16:07.874Z,10.10
2018-11-20T21:18:45.585Z,9.03
2018-11-20T21:21:26.032Z,10.30
2018-11-20T21:24:13.274Z,10.23
2018-11-20T21:27:00.503Z,8.67
2018-11-20T21:29:45.711Z,9.03
2018-11-20T21:32:24.400Z,10.50
2018-11-20T21:35:11.599Z,8.87
2018-11-20T21:37:58.831Z,10.47
2018-11-20T21:40:37.199Z,9.40
2018-11-20T21:43:24.422Z,9.23
2018-11-20T21:46:11.685Z,9.70
2018-11-20T21:48:55.218Z,10.67
2018-11-20T21:51:42.413Z,10.90
2018-11-20T21:54:30.354Z,10.30
2018-11-20T21:57:06.125Z,10.63
2018-11-20T21:59:57.122Z,10.80
2018-11-20T22:02:38.592Z,9.67
2018-11-20T22:05:26.052Z,9.77
2018-11-20T22:08:03.699Z,10.40
2018-11-20T22:10:50.905Z,11.03
2018-11-20T22:13:38.089Z,10.80
2018-11-20T22:16:25.329Z,8.90
2018-11-20T22:19:08.875Z,9.10
2018-11-20T22:21:45.800Z,10.47
2018-11-20T22:24:32.985Z,10.23
2018-11-20T22:27:20.154Z,10.20
2018-11-20T22:30:07.365Z,11.73
2018-11-20T22:32:54.602Z,11.13
2018-11-20T22:35:41.779Z,10.73
2018-11-20T22:38:29.025Z,9.57
2018-11-20T22:41:09.675Z,10.07
2018-11-20T22:43:56.880Z,10.20
2018-11-20T22:46:40.445Z,11.10
2018-11-20T22:49:27.677Z,9.63
2018-11-20T22:52:14.848Z,10.87
2018-11-20T22:55:02.308Z,9.03
2018-11-20T22:57:49.529Z,11.27
2018-11-20T23:00:26.156Z,9.07
2018-11-20T23:03:03.567Z,9.87
2018-11-20T23:05:48.074Z,11.07
2018-11-20T23:08:15.994Z,10.83
2018-11-20T23:10:43.934Z,10.40
2018-11-20T23:13:11.861Z,10.10
2018-11-20T23:15:39.845Z,10.10
2018-11-20T23:18:07.812Z,10.57
2018-11-20T23:20:35.738Z,10.73
2018-11-20T23:23:03.685Z,10.23
2018-11-20T23:25:31.617Z,10.37
2018-11-20T23:27:59.548Z,9.53
2018-11-20T23:30:28.018Z,9.87
2018-11-20T23:32:55.947Z,10.87
2018-11-20T23:35:23.885Z,9.70
2018-11-20T23:37:51.841Z,10.20
2018-11-20T23:40:19.782Z,9.47
2018-11-20T23:42:47.751Z,10.00
2018-11-20T23:45:15.940Z,11.60
2018-11-20T23:47:43.888Z,11.67
2018-11-20T23:50:13.389Z,9.90
2018-11-20T23:52:41.347Z,9.77
2018-11-20T23:55:11.723Z,10.23
2018-11-20T23:57:39.711Z,9.03
